MNN weather

Marion Municipal Airport
Marion, Ohio, United States

Public forecast

Using degrees Fahrenheit for public forecast. Weather courtesy of forecast.io.

Current aviation weather report (METAR) for Marion Municipal Airport

Retrieved 2019/10/24 03:53 UTC (18 minutes ago):

KMNN 240353Z AUTO 20014KT 10SM CLR 12/00 A3011 RMK AO2 SLP199 T01170000

Closest aviation forecast (TAF) to Marion Municipal Airport

Closest forecast is Mansfield Lahm Regional Airport, 27.8 nm (51.4 km) ENE. Retrieved 2019-10-24 00:34 UTC (4 hours ago):

TAF KMFD 232332Z 2400/2424 19011KT P6SM FEW250 FM240500 20014G23KT P6SM SCT250 FM241100 22012KT P6SM BKN150 WS020/24040KT FM241500 24010KT P6SM BKN100 FM242100 29005KT P6SM BKN060